Ursa Minor — ICGH — position and weather

sailwx.info

Track history (hours):
 
Tides and Currents Weather Stations Pressure Air Temp Water Temp Dewpoint Dewpoint Depression Visibility Wind Speed Wind Dir Waves Ship Positions

Ursa Minor

Last reported at 2015-May-05 14:30 UTC. Time now 2015-May-05 20:21 UTC.
Position N 38°09' E 015°35'.

Length 205 m; draft 7.8 m.

MMSI: 247082300.

Date/timePositionNaut miles runAvg speedWind from/ knotsBaromVisibWave heightAir tempDewpointWater temp
2015-May-05 14:30N 38°09' E 015°35'1111.8
2015-May-05 13:32N 38°20' E 015°39'13913.5
2015-May-05 03:16N 40°20' E 014°09'913.0
2015-May-05 02:33N 40°28' E 014°03'1413.5
2015-May-05 01:33N 40°37' E 013°50'1313.4
2015-May-05 00:33N 40°45' E 013°36'1413.6
2015-May-04 23:33N 40°54' E 013°22'1413.8
2015-May-04 22:33N 41°03' E 013°08'18913.3
2015-May-04 08:19N 43°19' E 010°11'1013.3
2015-May-04 07:33N 43°27' E 010°04'1313.2
2015-May-04 06:33N 43°37' E 009°51'1313.3
2015-May-04 05:33N 43°47' E 009°39'1313.4
2015-May-04 04:33N 43°57' E 009°27'1313.1
2015-May-04 03:33N 44°07' E 009°15'1313.3
2015-May-04 02:33N 44°17' E 009°02'1010.3
2015-May-04 01:34N 44°24' E 008°52'0 0.1
2015-May-04 00:33N 44°24' E 008°52'0 0.0
2015-May-03 23:33N 44°24' E 008°52'0 0.0
2015-May-03 22:33N 44°24' E 008°52'0 0.0
2015-May-03 21:33N 44°24' E 008°52'0 0.2
2015-May-03 20:33N 44°24' E 008°52'2 1.7
2015-May-03 19:33N 44°24' E 008°54'1010.5
2015-May-03 18:33N 44°16' E 009°04'1413.5
2015-May-03 17:33N 44°06' E 009°17'1313.2
2015-May-03 16:33N 43°56' E 009°29'1313.1
2015-May-03 15:33N 43°46' E 009°41'1313.2
2015-May-03 14:33N 43°37' E 009°53'1313.4
2015-May-03 13:34N 43°26' E 010°04'1313.1
2015-May-03 12:33N 43°15' E 010°13'1313.4
2015-May-03 11:33N 43°03' E 010°21'18413.2
2015-May-02 21:33N 40°55' E 013°20'1313.1
2015-May-02 20:34N 40°47' E 013°33'1313.0
2015-May-02 19:33N 40°39' E 013°47'1413.2
2015-May-02 18:30N 40°30' E 014°01'1212.8
2015-May-02 17:34N 40°21' E 014°11'12910.5
2015-May-02 05:15N 38°29' E 015°34'94 7.3
2015-May-01 16:28N 39°18' E 017°16'1412.5
2015-May-01 15:23N 39°31' E 017°15'  
2015-Apr-26 14:32N 39°55' E 017°12'1313.8
2015-Apr-26 13:33N 39°42' E 017°14'1414.2
2015-Apr-26 12:34N 39°28' E 017°15'135 6.4
2015-Apr-25 15:26N 40°01' E 014°25'  
Track history (hours):
 
Tides and Currents Weather Stations Pressure Air Temp Water Temp Dewpoint Dewpoint Depression Visibility Wind Speed Wind Dir Waves Ship Positions

Ursa Minor

Last reported at 2015-May-05 14:30 UTC. Time now 2015-May-05 20:21 UTC.
Position N 38°09' E 015°35'.

Length 205 m; draft 7.8 m.

MMSI: 247082300.

Date/timePositionNaut miles runAvg speedWind from/ knotsBaromVisibWave heightAir tempDewpointWater temp
2015-May-05 14:30N 38°09' E 015°35'1111.8
2015-May-05 13:32N 38°20' E 015°39'13913.5
2015-May-05 03:16N 40°20' E 014°09'913.0
2015-May-05 02:33N 40°28' E 014°03'1413.5
2015-May-05 01:33N 40°37' E 013°50'1313.4
2015-May-05 00:33N 40°45' E 013°36'1413.6
2015-May-04 23:33N 40°54' E 013°22'1413.8
2015-May-04 22:33N 41°03' E 013°08'18913.3
2015-May-04 08:19N 43°19' E 010°11'1013.3
2015-May-04 07:33N 43°27' E 010°04'1313.2
2015-May-04 06:33N 43°37' E 009°51'1313.3
2015-May-04 05:33N 43°47' E 009°39'1313.4
2015-May-04 04:33N 43°57' E 009°27'1313.1
2015-May-04 03:33N 44°07' E 009°15'1313.3
2015-May-04 02:33N 44°17' E 009°02'1010.3
2015-May-04 01:34N 44°24' E 008°52'0 0.1
2015-May-04 00:33N 44°24' E 008°52'0 0.0
2015-May-03 23:33N 44°24' E 008°52'0 0.0
2015-May-03 22:33N 44°24' E 008°52'0 0.0
2015-May-03 21:33N 44°24' E 008°52'0 0.2
2015-May-03 20:33N 44°24' E 008°52'2 1.7
2015-May-03 19:33N 44°24' E 008°54'1010.5
2015-May-03 18:33N 44°16' E 009°04'1413.5
2015-May-03 17:33N 44°06' E 009°17'1313.2
2015-May-03 16:33N 43°56' E 009°29'1313.1
2015-May-03 15:33N 43°46' E 009°41'1313.2
2015-May-03 14:33N 43°37' E 009°53'1313.4
2015-May-03 13:34N 43°26' E 010°04'1313.1
2015-May-03 12:33N 43°15' E 010°13'1313.4
2015-May-03 11:33N 43°03' E 010°21'18413.2
2015-May-02 21:33N 40°55' E 013°20'1313.1
2015-May-02 20:34N 40°47' E 013°33'1313.0
2015-May-02 19:33N 40°39' E 013°47'1413.2
2015-May-02 18:30N 40°30' E 014°01'1212.8
2015-May-02 17:34N 40°21' E 014°11'12910.5
2015-May-02 05:15N 38°29' E 015°34'94 7.3
2015-May-01 16:28N 39°18' E 017°16'1412.5
2015-May-01 15:23N 39°31' E 017°15'  
2015-Apr-26 14:32N 39°55' E 017°12'1313.8
2015-Apr-26 13:33N 39°42' E 017°14'1414.2
2015-Apr-26 12:34N 39°28' E 017°15'135 6.4
2015-Apr-25 15:26N 40°01' E 014°25'  

Dump ship's entire track history